HAZ601 ZSHC-VHHH
Flight info
| Callsign | HAZ601 |
|---|---|
| Flight time | N/A |
| Altitude | 40100 |
| Route | UGAGO8D UGAGO A470 BEBEM/N0490F401 A470 DOTMI/N0499F300 V512 ABBEY |
| Aircraft | A359/H-SDE2E3GHIJ3J4J5LM1ORWXY/LB1D1 |
Departure
| Time | 2026-05-05 06:04 |
|---|---|
| Airport | Hangzhou Xiaoshan International Airport (ZSHC) |
Arrival
| Time | N/A |
|---|---|
| Airport | Hong Kong International Airport (VHHH) |
| Time | Latitude | Longitude | Altitude | Speed | Heading |
|---|---|---|---|---|---|
| 2026-05-05 05:39 | 30.23815 | 120.42087 | 39 ft | 0 kts | 231° |
| 2026-05-05 05:47 | 30.23825 | 120.42102 | 38 ft | 4 kts | 231° |
| 2026-05-05 05:47 | 30.23839 | 120.42124 | 36 ft | 2 kts | 231° |
| 2026-05-05 05:47 | 30.23852 | 120.42147 | 35 ft | 4 kts | 259° |
| 2026-05-05 05:48 | 30.23849 | 120.42174 | 33 ft | 3 kts | 306° |
| 2026-05-05 05:48 | 30.23832 | 120.42196 | 36 ft | 4 kts | 326° |
| 2026-05-05 05:48 | 30.23816 | 120.42207 | 37 ft | 0 kts | 332° |
| 2026-05-05 05:51 | 30.23818 | 120.42206 | 35 ft | 1 kts | 332° |
| 2026-05-05 05:51 | 30.23851 | 120.42186 | 33 ft | 10 kts | 331° |
| 2026-05-05 05:52 | 30.23926 | 120.42141 | 39 ft | 13 kts | 333° |
| 2026-05-05 05:52 | 30.23992 | 120.42132 | 39 ft | 7 kts | 37° |
| 2026-05-05 05:52 | 30.24027 | 120.42179 | 39 ft | 9 kts | 59° |
| 2026-05-05 05:52 | 30.24058 | 120.42252 | 39 ft | 11 kts | 62° |
| 2026-05-05 05:53 | 30.24099 | 120.42341 | 39 ft | 14 kts | 63° |
| 2026-05-05 05:53 | 30.24148 | 120.42451 | 39 ft | 16 kts | 63° |
| 2026-05-05 05:53 | 30.24205 | 120.42573 | 39 ft | 18 kts | 62° |
| 2026-05-05 05:53 | 30.24262 | 120.42705 | 39 ft | 19 kts | 62° |
| 2026-05-05 05:54 | 30.24305 | 120.42805 | 39 ft | 14 kts | 65° |
| 2026-05-05 05:54 | 30.24358 | 120.42923 | 39 ft | 17 kts | 62° |
| 2026-05-05 05:54 | 30.24415 | 120.43054 | 39 ft | 19 kts | 63° |
| 2026-05-05 05:54 | 30.24480 | 120.43196 | 39 ft | 20 kts | 62° |
| 2026-05-05 05:55 | 30.24533 | 120.43338 | 39 ft | 5 kts | 95° |
| 2026-05-05 05:55 | 30.24516 | 120.43358 | 39 ft | 3 kts | 147° |
| 2026-05-05 05:55 | 30.24484 | 120.43376 | 39 ft | 7 kts | 153° |
| 2026-05-05 05:55 | 30.24426 | 120.43410 | 39 ft | 11 kts | 152° |
| 2026-05-05 05:56 | 30.24333 | 120.43466 | 38 ft | 17 kts | 147° |
| 2026-05-05 05:56 | 30.24216 | 120.43535 | 37 ft | 22 kts | 155° |
| 2026-05-05 05:56 | 30.24072 | 120.43620 | 37 ft | 24 kts | 153° |
| 2026-05-05 05:56 | 30.23929 | 120.43708 | 38 ft | 23 kts | 153° |
| 2026-05-05 05:57 | 30.23782 | 120.43794 | 37 ft | 24 kts | 152° |
| 2026-05-05 05:57 | 30.23643 | 120.43878 | 38 ft | 22 kts | 156° |
| 2026-05-05 05:57 | 30.23509 | 120.43956 | 38 ft | 22 kts | 153° |
| 2026-05-05 05:57 | 30.23417 | 120.44027 | 38 ft | 5 kts | 97° |
| 2026-05-05 05:58 | 30.23432 | 120.44081 | 38 ft | 11 kts | 70° |
| 2026-05-05 05:58 | 30.23473 | 120.44186 | 38 ft | 17 kts | 62° |
| 2026-05-05 05:58 | 30.23532 | 120.44316 | 38 ft | 19 kts | 62° |
| 2026-05-05 05:58 | 30.23596 | 120.44458 | 38 ft | 21 kts | 63° |
| 2026-05-05 05:59 | 30.23665 | 120.44613 | 38 ft | 22 kts | 63° |
| 2026-05-05 05:59 | 30.23736 | 120.44777 | 38 ft | 24 kts | 63° |
| 2026-05-05 05:59 | 30.23813 | 120.44953 | 38 ft | 25 kts | 63° |
| 2026-05-05 05:59 | 30.23827 | 120.44995 | 38 ft | 0 kts | 89° |
| 2026-05-05 06:00 | 30.23824 | 120.45005 | 38 ft | 2 kts | 108° |
| 2026-05-05 06:00 | 30.23803 | 120.45032 | 37 ft | 5 kts | 155° |
| 2026-05-05 06:00 | 30.23801 | 120.45033 | 37 ft | 0 kts | 157° |
| 2026-05-05 06:02 | 30.23784 | 120.45041 | 37 ft | 7 kts | 156° |
| 2026-05-05 06:02 | 30.23717 | 120.45077 | 36 ft | 5 kts | 154° |
| 2026-05-05 06:03 | 30.23702 | 120.45078 | 36 ft | 3 kts | 187° |
| 2026-05-05 06:03 | 30.23671 | 120.45055 | 36 ft | 5 kts | 224° |
| 2026-05-05 06:03 | 30.23650 | 120.45016 | 36 ft | 6 kts | 243° |
| 2026-05-05 06:03 | 30.23613 | 120.44933 | 36 ft | 21 kts | 243° |
| 2026-05-05 06:04 | 30.23483 | 120.44641 | 38 ft | 72 kts | 243° |
| 2026-05-05 06:04 | 30.23151 | 120.43898 | 38 ft | 134 kts | 243° |
| 2026-05-05 06:04 | 30.22670 | 120.42768 | 248 ft | 165 kts | 242° |
| 2026-05-05 06:04 | 30.22198 | 120.41581 | 986 ft | 166 kts | 240° |
| 2026-05-05 06:05 | 30.21620 | 120.40437 | 1590 ft | 164 kts | 228° |
| 2026-05-05 06:05 | 30.21080 | 120.39796 | 1781 ft | 172 kts | 219° |
| 2026-05-05 06:05 | 30.20147 | 120.38831 | 2068 ft | 188 kts | 220° |
| 2026-05-05 06:05 | 30.19158 | 120.37736 | 2407 ft | 205 kts | 223° |
| 2026-05-05 06:06 | 30.18110 | 120.36504 | 2708 ft | 225 kts | 225° |
| 2026-05-05 06:06 | 30.17004 | 120.35129 | 3103 ft | 241 kts | 226° |
| 2026-05-05 06:06 | 30.15860 | 120.33680 | 3612 ft | 250 kts | 226° |
| 2026-05-05 06:06 | 30.14681 | 120.32174 | 4228 ft | 254 kts | 226° |
| 2026-05-05 06:07 | 30.13483 | 120.30647 | 4865 ft | 259 kts | 225° |
| 2026-05-05 06:07 | 30.12258 | 120.29098 | 5445 ft | 263 kts | 226° |
| 2026-05-05 06:07 | 30.11017 | 120.27525 | 6020 ft | 267 kts | 226° |
| 2026-05-05 06:07 | 30.09760 | 120.25926 | 6620 ft | 270 kts | 225° |
| 2026-05-05 06:08 | 30.08488 | 120.24309 | 7211 ft | 272 kts | 225° |
| 2026-05-05 06:08 | 30.07386 | 120.22527 | 7810 ft | 277 kts | 243° |
| 2026-05-05 06:08 | 30.06772 | 120.20417 | 8452 ft | 278 kts | 254° |
| 2026-05-05 06:08 | 30.06294 | 120.18245 | 9156 ft | 278 kts | 254° |
| 2026-05-05 06:09 | 30.05818 | 120.16085 | 9853 ft | 278 kts | 255° |
| 2026-05-05 06:09 | 30.05330 | 120.13904 | 10375 ft | 283 kts | 255° |
| 2026-05-05 06:09 | 30.04833 | 120.11700 | 10948 ft | 283 kts | 255° |
| 2026-05-05 06:09 | 30.04332 | 120.09494 | 11512 ft | 286 kts | 256° |
| 2026-05-05 06:10 | 30.03823 | 120.07254 | 12001 ft | 291 kts | 256° |
| 2026-05-05 06:10 | 30.03309 | 120.04993 | 12608 ft | 291 kts | 256° |
| 2026-05-05 06:10 | 30.02793 | 120.02730 | 13219 ft | 292 kts | 256° |
| 2026-05-05 06:10 | 30.02243 | 120.00449 | 13713 ft | 297 kts | 253° |
| 2026-05-05 06:11 | 30.01376 | 119.98263 | 14130 ft | 305 kts | 243° |
| 2026-05-05 06:11 | 30.00305 | 119.96090 | 14383 ft | 317 kts | 241° |
| 2026-05-05 06:11 | 29.99182 | 119.93856 | 14649 ft | 328 kts | 241° |
| 2026-05-05 06:11 | 29.98020 | 119.91536 | 14776 ft | 342 kts | 241° |
| 2026-05-05 06:12 | 29.96802 | 119.89092 | 14785 ft | 359 kts | 241° |
| 2026-05-05 06:12 | 29.95541 | 119.86560 | 14782 ft | 368 kts | 241° |
| 2026-05-05 06:12 | 29.94259 | 119.83986 | 14781 ft | 370 kts | 241° |
| 2026-05-05 06:12 | 29.92980 | 119.81419 | 14775 ft | 369 kts | 241° |
| 2026-05-05 06:13 | 29.91700 | 119.78852 | 14768 ft | 369 kts | 241° |
| 2026-05-05 06:13 | 29.90419 | 119.76282 | 14777 ft | 369 kts | 241° |
| 2026-05-05 06:13 | 29.89144 | 119.73725 | 14775 ft | 369 kts | 241° |
| 2026-05-05 06:13 | 29.87864 | 119.71158 | 14775 ft | 369 kts | 241° |
| 2026-05-05 06:14 | 29.86502 | 119.68648 | 14770 ft | 371 kts | 233° |
| 2026-05-05 06:14 | 29.84549 | 119.66703 | 14784 ft | 375 kts | 211° |
| 2026-05-05 06:14 | 29.82103 | 119.65759 | 14910 ft | 383 kts | 188° |
| 2026-05-05 06:14 | 29.79399 | 119.65721 | 15395 ft | 384 kts | 180° |
| 2026-05-05 06:15 | 29.76759 | 119.65777 | 15845 ft | 385 kts | 182° |
| 2026-05-05 06:15 | 29.74044 | 119.65741 | 16299 ft | 386 kts | 184° |
| 2026-05-05 06:15 | 29.71362 | 119.65608 | 16748 ft | 387 kts | 185° |
| 2026-05-05 06:15 | 29.68692 | 119.65444 | 17193 ft | 389 kts | 186° |
| 2026-05-05 06:16 | 29.65989 | 119.65267 | 17630 ft | 391 kts | 186° |
| 2026-05-05 06:16 | 29.63264 | 119.65085 | 18055 ft | 393 kts | 186° |
| 2026-05-05 06:16 | 29.60514 | 119.64917 | 18447 ft | 396 kts | 185° |
| 2026-05-05 06:16 | 29.57755 | 119.64827 | 18837 ft | 397 kts | 184° |
| 2026-05-05 06:17 | 29.55001 | 119.64782 | 19264 ft | 397 kts | 184° |
| 2026-05-05 06:17 | 29.52239 | 119.64726 | 19655 ft | 398 kts | 185° |
| 2026-05-05 06:17 | 29.49460 | 119.64594 | 20013 ft | 399 kts | 186° |
| 2026-05-05 06:17 | 29.46688 | 119.64419 | 20373 ft | 400 kts | 186° |
| 2026-05-05 06:18 | 29.43902 | 119.64228 | 20751 ft | 401 kts | 187° |
| 2026-05-05 06:18 | 29.41106 | 119.64036 | 21113 ft | 403 kts | 187° |
| 2026-05-05 06:18 | 29.38308 | 119.63850 | 21477 ft | 404 kts | 187° |
| 2026-05-05 06:18 | 29.35491 | 119.63670 | 21835 ft | 405 kts | 187° |
| 2026-05-05 06:19 | 29.32673 | 119.63495 | 22193 ft | 406 kts | 188° |
| 2026-05-05 06:19 | 29.29873 | 119.63327 | 22721 ft | 402 kts | 188° |
| 2026-05-05 06:19 | 29.27069 | 119.63158 | 23076 ft | 403 kts | 188° |
| 2026-05-05 06:19 | 29.24262 | 119.62987 | 23395 ft | 405 kts | 188° |
| 2026-05-05 06:20 | 29.21447 | 119.62821 | 23731 ft | 406 kts | 188° |
| 2026-05-05 06:20 | 29.18621 | 119.62648 | 23961 ft | 409 kts | 189° |
| 2026-05-05 06:20 | 29.15770 | 119.62471 | 24208 ft | 410 kts | 189° |
| 2026-05-05 06:20 | 29.12921 | 119.62294 | 24466 ft | 411 kts | 189° |
| 2026-05-05 06:21 | 29.10056 | 119.62118 | 24706 ft | 413 kts | 189° |
| 2026-05-05 06:21 | 29.07180 | 119.61946 | 24984 ft | 413 kts | 189° |
| 2026-05-05 06:21 | 29.04328 | 119.61778 | 25315 ft | 411 kts | 190° |
| 2026-05-05 06:21 | 29.01456 | 119.61599 | 25551 ft | 413 kts | 190° |
| 2026-05-05 06:22 | 28.98625 | 119.61417 | 25764 ft | 415 kts | 190° |
| 2026-05-05 06:22 | 28.95736 | 119.61231 | 25997 ft | 416 kts | 190° |
| 2026-05-05 06:22 | 28.92802 | 119.61045 | 26247 ft | 417 kts | 190° |
| 2026-05-05 06:22 | 28.89936 | 119.60866 | 26494 ft | 419 kts | 190° |
| 2026-05-05 06:23 | 28.87019 | 119.60684 | 26717 ft | 420 kts | 190° |
| 2026-05-05 06:23 | 28.84055 | 119.60496 | 26979 ft | 421 kts | 190° |
| 2026-05-05 06:23 | 28.81164 | 119.60318 | 27291 ft | 421 kts | 191° |
| 2026-05-05 06:23 | 28.78253 | 119.60140 | 27606 ft | 421 kts | 191° |
| 2026-05-05 06:24 | 28.75318 | 119.59959 | 27851 ft | 423 kts | 191° |
| 2026-05-05 06:24 | 28.72374 | 119.59776 | 28103 ft | 425 kts | 191° |
| 2026-05-05 06:24 | 28.69410 | 119.59592 | 28380 ft | 426 kts | 191° |
| 2026-05-05 06:24 | 28.66443 | 119.59408 | 28675 ft | 428 kts | 191° |
| 2026-05-05 06:25 | 28.63462 | 119.59225 | 28981 ft | 429 kts | 191° |
| 2026-05-05 06:25 | 28.60476 | 119.59040 | 29216 ft | 431 kts | 191° |
| 2026-05-05 06:25 | 28.57472 | 119.58861 | 29554 ft | 432 kts | 192° |
| 2026-05-05 06:25 | 28.54476 | 119.58683 | 29956 ft | 431 kts | 192° |
| 2026-05-05 06:26 | 28.51485 | 119.58499 | 30201 ft | 433 kts | 192° |
| 2026-05-05 06:26 | 28.48468 | 119.58307 | 30397 ft | 435 kts | 192° |
| 2026-05-05 06:26 | 28.45430 | 119.58115 | 30619 ft | 438 kts | 192° |
| 2026-05-05 06:26 | 28.42382 | 119.57939 | 30843 ft | 440 kts | 192° |
| 2026-05-05 06:27 | 28.39316 | 119.57768 | 31076 ft | 442 kts | 192° |
| 2026-05-05 06:27 | 28.33147 | 119.57429 | 31487 ft | 446 kts | 192° |
| 2026-05-05 06:27 | 28.30034 | 119.57259 | 31740 ft | 447 kts | 192° |
| 2026-05-05 06:28 | 28.26920 | 119.57085 | 31894 ft | 450 kts | 192° |
| 2026-05-05 06:28 | 28.23788 | 119.56907 | 32065 ft | 452 kts | 192° |
| 2026-05-05 06:28 | 28.20656 | 119.56735 | 32327 ft | 452 kts | 192° |
| 2026-05-05 06:28 | 28.17499 | 119.56564 | 32523 ft | 454 kts | 192° |
| 2026-05-05 06:29 | 28.14333 | 119.56390 | 32654 ft | 457 kts | 192° |
| 2026-05-05 06:29 | 28.11154 | 119.56215 | 32859 ft | 458 kts | 192° |
| 2026-05-05 06:29 | 28.07970 | 119.56053 | 33003 ft | 460 kts | 191° |
| 2026-05-05 06:29 | 28.04760 | 119.55969 | 33143 ft | 464 kts | 190° |
| 2026-05-05 06:30 | 28.01519 | 119.55937 | 33330 ft | 465 kts | 189° |
| 2026-05-05 06:30 | 27.98286 | 119.55919 | 33494 ft | 466 kts | 189° |
| 2026-05-05 06:30 | 27.95034 | 119.55899 | 33698 ft | 467 kts | 189° |
| 2026-05-05 06:30 | 27.91786 | 119.55869 | 33920 ft | 467 kts | 189° |
| 2026-05-05 06:31 | 27.88541 | 119.55843 | 34140 ft | 468 kts | 189° |
| 2026-05-05 06:31 | 27.85280 | 119.55828 | 34361 ft | 468 kts | 189° |
| 2026-05-05 06:31 | 27.82028 | 119.55817 | 34631 ft | 466 kts | 189° |
| 2026-05-05 06:31 | 27.78787 | 119.55806 | 34868 ft | 466 kts | 189° |
| 2026-05-05 06:32 | 27.75553 | 119.55792 | 35113 ft | 466 kts | 189° |
| 2026-05-05 06:32 | 27.72318 | 119.55776 | 35365 ft | 465 kts | 189° |
| 2026-05-05 06:32 | 27.69097 | 119.55760 | 35718 ft | 461 kts | 189° |
| 2026-05-05 06:32 | 27.65894 | 119.55743 | 35930 ft | 461 kts | 190° |
| 2026-05-05 06:33 | 27.62662 | 119.55721 | 36027 ft | 464 kts | 190° |
| 2026-05-05 06:33 | 27.59442 | 119.55699 | 36255 ft | 464 kts | 190° |
| 2026-05-05 06:33 | 27.56218 | 119.55683 | 36525 ft | 462 kts | 190° |
| 2026-05-05 06:33 | 27.52999 | 119.55666 | 36723 ft | 463 kts | 190° |
| 2026-05-05 06:34 | 27.49772 | 119.55648 | 36917 ft | 463 kts | 190° |
| 2026-05-05 06:34 | 27.46561 | 119.55630 | 37168 ft | 462 kts | 190° |
| 2026-05-05 06:34 | 27.43352 | 119.55613 | 37439 ft | 461 kts | 190° |
| 2026-05-05 06:34 | 27.40148 | 119.55596 | 37650 ft | 461 kts | 190° |
| 2026-05-05 06:35 | 27.36934 | 119.55587 | 37884 ft | 460 kts | 190° |
| 2026-05-05 06:35 | 27.33745 | 119.55586 | 38118 ft | 460 kts | 190° |
| 2026-05-05 06:35 | 27.30546 | 119.55586 | 38361 ft | 459 kts | 190° |
| 2026-05-05 06:35 | 27.27343 | 119.55585 | 38478 ft | 460 kts | 190° |
| 2026-05-05 06:36 | 27.24144 | 119.55578 | 38611 ft | 461 kts | 190° |
| 2026-05-05 06:36 | 27.20934 | 119.55560 | 38801 ft | 460 kts | 190° |
| 2026-05-05 06:36 | 27.17734 | 119.55539 | 38934 ft | 461 kts | 190° |
| 2026-05-05 06:36 | 27.14524 | 119.55516 | 39068 ft | 461 kts | 190° |
| 2026-05-05 06:37 | 27.11318 | 119.55492 | 39179 ft | 462 kts | 190° |
| 2026-05-05 06:37 | 27.08108 | 119.55469 | 39302 ft | 462 kts | 190° |
| 2026-05-05 06:37 | 27.04887 | 119.55447 | 39412 ft | 463 kts | 190° |
| 2026-05-05 06:38 | 26.98476 | 119.55405 | 39605 ft | 464 kts | 190° |
| 2026-05-05 06:38 | 26.95248 | 119.55385 | 39734 ft | 464 kts | 190° |
| 2026-05-05 06:38 | 26.92023 | 119.55365 | 39854 ft | 464 kts | 190° |
| 2026-05-05 06:39 | 26.85548 | 119.55324 | 40024 ft | 466 kts | 190° |
| 2026-05-05 06:39 | 26.82300 | 119.55303 | 40138 ft | 466 kts | 190° |
| 2026-05-05 06:39 | 26.79051 | 119.55282 | 40186 ft | 467 kts | 190° |
| 2026-05-05 06:40 | 26.72557 | 119.55242 | 40184 ft | 467 kts | 189° |
| 2026-05-05 06:40 | 26.66075 | 119.55202 | 40182 ft | 466 kts | 189° |
| 2026-05-05 06:41 | 26.59590 | 119.55161 | 40195 ft | 466 kts | 189° |
| 2026-05-05 06:41 | 26.53103 | 119.55125 | 40195 ft | 466 kts | 189° |
| 2026-05-05 06:42 | 26.46624 | 119.55081 | 40189 ft | 466 kts | 189° |
| 2026-05-05 06:42 | 26.43388 | 119.55059 | 40194 ft | 466 kts | 189° |
| 2026-05-05 06:44 | 26.21643 | 119.54470 | 40182 ft | 454 kts | 199° |
| 2026-05-05 06:44 | 26.15609 | 119.52708 | 40195 ft | 447 kts | 205° |
| 2026-05-05 06:45 | 26.09673 | 119.50681 | 40191 ft | 446 kts | 205° |
| 2026-05-05 06:45 | 26.03774 | 119.48635 | 40190 ft | 446 kts | 205° |
| 2026-05-05 06:46 | 25.97848 | 119.46600 | 40157 ft | 446 kts | 205° |
| 2026-05-05 06:46 | 25.91857 | 119.44560 | 40180 ft | 448 kts | 205° |
| 2026-05-05 06:47 | 25.85902 | 119.42536 | 40180 ft | 448 kts | 205° |
| 2026-05-05 06:47 | 25.79980 | 119.40528 | 40179 ft | 447 kts | 205° |
| 2026-05-05 06:48 | 25.74387 | 119.37786 | 40178 ft | 434 kts | 218° |
| 2026-05-05 06:48 | 25.69801 | 119.33607 | 40175 ft | 425 kts | 230° |
| 2026-05-05 06:49 | 25.65719 | 119.28874 | 40176 ft | 425 kts | 231° |
| 2026-05-05 06:49 | 25.61695 | 119.24080 | 40183 ft | 425 kts | 231° |
| 2026-05-05 06:50 | 25.57660 | 119.19307 | 40167 ft | 424 kts | 231° |
| 2026-05-05 06:50 | 25.53611 | 119.14555 | 40167 ft | 425 kts | 231° |
| 2026-05-05 06:51 | 25.49550 | 119.09801 | 40154 ft | 426 kts | 231° |
| 2026-05-05 06:51 | 25.45470 | 119.05032 | 40160 ft | 427 kts | 231° |
| 2026-05-05 06:52 | 25.41392 | 119.00268 | 40151 ft | 427 kts | 231° |
| 2026-05-05 06:52 | 25.37305 | 118.95499 | 40167 ft | 427 kts | 231° |
| 2026-05-05 06:53 | 25.33223 | 118.90739 | 40148 ft | 427 kts | 231° |
| 2026-05-05 06:53 | 25.29212 | 118.85916 | 40146 ft | 426 kts | 232° |
| 2026-05-05 06:54 | 25.25240 | 118.81062 | 40150 ft | 426 kts | 232° |
| 2026-05-05 06:54 | 25.21251 | 118.76214 | 40147 ft | 426 kts | 232° |
| 2026-05-05 06:55 | 25.17282 | 118.71417 | 40152 ft | 426 kts | 232° |
| 2026-05-05 06:55 | 25.13275 | 118.66586 | 40152 ft | 427 kts | 232° |
| 2026-05-05 06:56 | 25.09257 | 118.61749 | 40138 ft | 428 kts | 232° |
| 2026-05-05 06:56 | 25.05165 | 118.56962 | 40147 ft | 429 kts | 231° |
| 2026-05-05 06:57 | 25.01013 | 118.52243 | 40149 ft | 429 kts | 230° |
| 2026-05-05 06:57 | 24.96853 | 118.47507 | 40147 ft | 429 kts | 231° |
| 2026-05-05 06:58 | 24.92724 | 118.42786 | 40151 ft | 429 kts | 231° |
| 2026-05-05 06:58 | 24.88578 | 118.38040 | 40147 ft | 429 kts | 231° |
| 2026-05-05 06:59 | 24.84425 | 118.33290 | 40143 ft | 430 kts | 231° |
| 2026-05-05 06:59 | 24.80276 | 118.28550 | 40146 ft | 431 kts | 231° |
| 2026-05-05 07:00 | 24.76115 | 118.23801 | 40145 ft | 431 kts | 231° |
| 2026-05-05 07:00 | 24.71948 | 118.19053 | 40148 ft | 431 kts | 231° |
| 2026-05-05 07:01 | 24.67769 | 118.14307 | 40145 ft | 431 kts | 231° |
| 2026-05-05 07:01 | 24.63600 | 118.09572 | 40094 ft | 431 kts | 231° |
| 2026-05-05 07:02 | 24.59424 | 118.04826 | 40150 ft | 434 kts | 231° |
| 2026-05-05 07:02 | 24.56573 | 118.01590 | 40141 ft | 434 kts | 231° |
| 2026-05-05 07:03 | 24.52462 | 117.96755 | 40136 ft | 433 kts | 233° |
| 2026-05-05 07:03 | 24.48469 | 117.91862 | 40133 ft | 433 kts | 233° |
| 2026-05-05 07:04 | 24.44439 | 117.86945 | 40136 ft | 433 kts | 232° |
| 2026-05-05 07:04 | 24.40420 | 117.82082 | 40113 ft | 433 kts | 232° |
| 2026-05-05 07:05 | 24.36356 | 117.77186 | 40145 ft | 435 kts | 232° |
| 2026-05-05 07:05 | 24.32278 | 117.72282 | 40148 ft | 435 kts | 232° |
| 2026-05-05 07:06 | 24.28199 | 117.67380 | 40133 ft | 436 kts | 232° |
| 2026-05-05 07:06 | 24.24115 | 117.62476 | 40146 ft | 435 kts | 232° |
| 2026-05-05 07:07 | 24.20068 | 117.57621 | 40135 ft | 435 kts | 232° |
| 2026-05-05 07:07 | 24.15983 | 117.52726 | 40142 ft | 437 kts | 232° |
| 2026-05-05 07:08 | 24.11626 | 117.48005 | 40152 ft | 442 kts | 227° |
| 2026-05-05 07:08 | 24.07088 | 117.43505 | 40145 ft | 440 kts | 227° |
| 2026-05-05 07:09 | 24.02524 | 117.39036 | 40145 ft | 440 kts | 227° |
| 2026-05-05 07:09 | 23.97959 | 117.34574 | 40140 ft | 440 kts | 227° |
| 2026-05-05 07:10 | 23.93389 | 117.30105 | 40129 ft | 441 kts | 227° |
| 2026-05-05 07:10 | 23.88807 | 117.25623 | 40133 ft | 444 kts | 227° |
| 2026-05-05 07:11 | 23.84187 | 117.21109 | 40135 ft | 445 kts | 227° |
| 2026-05-05 07:11 | 23.79572 | 117.16611 | 40137 ft | 444 kts | 227° |
| 2026-05-05 07:12 | 23.74985 | 117.12117 | 40131 ft | 442 kts | 229° |
| 2026-05-05 07:12 | 23.70724 | 117.07318 | 40101 ft | 439 kts | 232° |
| 2026-05-05 07:13 | 23.66573 | 117.02396 | 40133 ft | 443 kts | 232° |
| 2026-05-05 07:13 | 23.62351 | 116.97497 | 40134 ft | 444 kts | 231° |
| 2026-05-05 07:14 | 23.58078 | 116.92627 | 40128 ft | 444 kts | 231° |
| 2026-05-05 07:14 | 23.53781 | 116.87756 | 40129 ft | 444 kts | 231° |
| 2026-05-05 07:15 | 23.49518 | 116.82925 | 40130 ft | 445 kts | 231° |
| 2026-05-05 07:15 | 23.45251 | 116.78102 | 40110 ft | 446 kts | 230° |
| 2026-05-05 07:16 | 23.40435 | 116.73681 | 40116 ft | 453 kts | 224° |
| 2026-05-05 07:16 | 23.35472 | 116.69527 | 40114 ft | 454 kts | 223° |
| 2026-05-05 07:17 | 23.30445 | 116.65380 | 40112 ft | 454 kts | 223° |
| 2026-05-05 07:17 | 23.25418 | 116.61225 | 40132 ft | 454 kts | 223° |
| 2026-05-05 07:18 | 23.20396 | 116.57065 | 40117 ft | 454 kts | 223° |
| 2026-05-05 07:18 | 23.15358 | 116.52889 | 40122 ft | 456 kts | 223° |
| 2026-05-05 07:19 | 23.10326 | 116.48722 | 40112 ft | 456 kts | 223° |
| 2026-05-05 07:19 | 23.05280 | 116.44550 | 39730 ft | 456 kts | 223° |
| 2026-05-05 07:19 | 23.02746 | 116.42456 | 39197 ft | 455 kts | 223° |
| 2026-05-05 07:20 | 23.00222 | 116.40372 | 38517 ft | 456 kts | 223° |
| 2026-05-05 07:20 | 22.97696 | 116.38286 | 37686 ft | 458 kts | 223° |
| 2026-05-05 07:20 | 22.95172 | 116.36203 | 36923 ft | 459 kts | 223° |
| 2026-05-05 07:20 | 22.92639 | 116.34105 | 36331 ft | 458 kts | 223° |
| 2026-05-05 07:21 | 22.90113 | 116.32013 | 36049 ft | 454 kts | 223° |
| 2026-05-05 07:21 | 22.85089 | 116.27837 | 36011 ft | 457 kts | 223° |
| 2026-05-05 07:22 | 22.80050 | 116.23648 | 36006 ft | 457 kts | 223° |
| 2026-05-05 07:22 | 22.75132 | 116.19311 | 36010 ft | 453 kts | 229° |
| 2026-05-05 07:23 | 22.70643 | 116.14547 | 35989 ft | 452 kts | 230° |
| 2026-05-05 07:23 | 22.66241 | 116.09670 | 35981 ft | 453 kts | 231° |
| 2026-05-05 07:23 | 22.64035 | 116.07215 | 35761 ft | 454 kts | 231° |
| 2026-05-05 07:24 | 22.61851 | 116.04793 | 35528 ft | 454 kts | 231° |
| 2026-05-05 07:24 | 22.59621 | 116.02327 | 35298 ft | 455 kts | 230° |
| 2026-05-05 07:24 | 22.57403 | 115.99883 | 35064 ft | 455 kts | 230° |
| 2026-05-05 07:24 | 22.55181 | 115.97438 | 34836 ft | 455 kts | 230° |
| 2026-05-05 07:25 | 22.52957 | 115.94995 | 34605 ft | 455 kts | 230° |
| 2026-05-05 07:25 | 22.50819 | 115.92491 | 34433 ft | 448 kts | 234° |
| 2026-05-05 07:25 | 22.48975 | 115.89820 | 33806 ft | 442 kts | 241° |
| 2026-05-05 07:25 | 22.47479 | 115.86924 | 32860 ft | 441 kts | 248° |
| 2026-05-05 07:26 | 22.46384 | 115.83829 | 31851 ft | 443 kts | 256° |
| 2026-05-05 07:26 | 22.45676 | 115.80575 | 31001 ft | 444 kts | 260° |
| 2026-05-05 07:26 | 22.45080 | 115.77304 | 30325 ft | 443 kts | 260° |
| 2026-05-05 07:26 | 22.44500 | 115.74087 | 29657 ft | 440 kts | 260° |
| 2026-05-05 07:27 | 22.43904 | 115.70816 | 28982 ft | 436 kts | 260° |
| 2026-05-05 07:27 | 22.43318 | 115.67621 | 28316 ft | 433 kts | 260° |
| 2026-05-05 07:27 | 22.42731 | 115.64432 | 27688 ft | 429 kts | 260° |
| 2026-05-05 07:27 | 22.42346 | 115.62352 | 27292 ft | 427 kts | 260° |
| 2026-05-05 07:28 | 22.41570 | 115.58163 | 26513 ft | 422 kts | 260° |
| 2026-05-05 07:28 | 22.40995 | 115.55067 | 25915 ft | 419 kts | 260° |
| 2026-05-05 07:28 | 22.40432 | 115.52033 | 25310 ft | 416 kts | 260° |
| 2026-05-05 07:28 | 22.39863 | 115.48974 | 24707 ft | 414 kts | 260° |
| 2026-05-05 07:29 | 22.39297 | 115.45940 | 24117 ft | 411 kts | 260° |
| 2026-05-05 07:29 | 22.38915 | 115.43892 | 23731 ft | 409 kts | 260° |
| 2026-05-05 07:29 | 22.38356 | 115.40895 | 23092 ft | 406 kts | 260° |
| 2026-05-05 07:29 | 22.37831 | 115.38085 | 22464 ft | 403 kts | 259° |
| 2026-05-05 07:30 | 22.37655 | 115.37144 | 22273 ft | 402 kts | 259° |
| 2026-05-05 07:30 | 22.36557 | 115.31274 | 20992 ft | 395 kts | 259° |
| 2026-05-05 07:30 | 22.36013 | 115.28372 | 20356 ft | 392 kts | 259° |
| 2026-05-05 07:31 | 22.35473 | 115.25499 | 19632 ft | 393 kts | 259° |
| 2026-05-05 07:31 | 22.34928 | 115.22596 | 18928 ft | 393 kts | 258° |
| 2026-05-05 07:31 | 22.34387 | 115.19718 | 18311 ft | 390 kts | 258° |
| 2026-05-05 07:31 | 22.33847 | 115.16852 | 17636 ft | 387 kts | 258° |
| 2026-05-05 07:32 | 22.33311 | 115.14013 | 16945 ft | 385 kts | 258° |
| 2026-05-05 07:32 | 22.32779 | 115.11191 | 16255 ft | 383 kts | 258° |
| 2026-05-05 07:32 | 22.32248 | 115.08383 | 15578 ft | 381 kts | 258° |
| 2026-05-05 07:32 | 22.31721 | 115.05591 | 14930 ft | 377 kts | 258° |
| 2026-05-05 07:33 | 22.31197 | 115.02823 | 14288 ft | 375 kts | 258° |
| 2026-05-05 07:33 | 22.30676 | 115.00076 | 13606 ft | 373 kts | 258° |
| 2026-05-05 07:33 | 22.30154 | 114.97322 | 12875 ft | 372 kts | 258° |
| 2026-05-05 07:33 | 22.29639 | 114.94606 | 12210 ft | 368 kts | 258° |
| 2026-05-05 07:34 | 22.29128 | 114.91918 | 11584 ft | 364 kts | 258° |
| 2026-05-05 07:34 | 22.28621 | 114.89251 | 11146 ft | 359 kts | 258° |
| 2026-05-05 07:34 | 22.28128 | 114.86610 | 11004 ft | 360 kts | 259° |
| 2026-05-05 07:34 | 22.27705 | 114.83934 | 10985 ft | 361 kts | 260° |
| 2026-05-05 07:35 | 22.27304 | 114.81263 | 10988 ft | 361 kts | 260° |
| 2026-05-05 07:35 | 22.26901 | 114.78618 | 11002 ft | 361 kts | 260° |
| 2026-05-05 07:35 | 22.26489 | 114.75958 | 10891 ft | 355 kts | 259° |
| 2026-05-05 07:35 | 22.26079 | 114.73323 | 10228 ft | 353 kts | 259° |
| 2026-05-05 07:36 | 22.25673 | 114.70732 | 9488 ft | 354 kts | 259° |
| 2026-05-05 07:36 | 22.25258 | 114.68091 | 8825 ft | 352 kts | 259° |
| 2026-05-05 07:36 | 22.24850 | 114.65505 | 8280 ft | 348 kts | 259° |
| 2026-05-05 07:36 | 22.24443 | 114.62931 | 8045 ft | 348 kts | 259° |
| 2026-05-05 07:37 | 22.24041 | 114.60386 | 8011 ft | 349 kts | 259° |
| 2026-05-05 07:37 | 22.23633 | 114.57815 | 8010 ft | 348 kts | 259° |
| 2026-05-05 07:37 | 22.23221 | 114.55204 | 8016 ft | 348 kts | 259° |
| 2026-05-05 07:37 | 22.22809 | 114.52628 | 8009 ft | 349 kts | 259° |
| 2026-05-05 07:38 | 22.22402 | 114.50081 | 8001 ft | 348 kts | 259° |
| 2026-05-05 07:38 | 22.21995 | 114.47512 | 8016 ft | 348 kts | 259° |
| 2026-05-05 07:38 | 22.21584 | 114.44924 | 8015 ft | 348 kts | 259° |
| 2026-05-05 07:38 | 22.21174 | 114.42349 | 8015 ft | 348 kts | 259° |
| 2026-05-05 07:39 | 22.20764 | 114.39779 | 8012 ft | 348 kts | 259° |
| 2026-05-05 07:39 | 22.20353 | 114.37203 | 8000 ft | 349 kts | 259° |
| 2026-05-05 07:39 | 22.19939 | 114.34613 | 8011 ft | 350 kts | 259° |
| 2026-05-05 07:39 | 22.19526 | 114.32031 | 8002 ft | 350 kts | 259° |
| 2026-05-05 07:40 | 22.19112 | 114.29448 | 8011 ft | 350 kts | 259° |
| 2026-05-05 07:40 | 22.18698 | 114.26862 | 8012 ft | 350 kts | 259° |
| 2026-05-05 07:40 | 22.18281 | 114.24267 | 8015 ft | 351 kts | 259° |
| 2026-05-05 07:40 | 22.17867 | 114.21679 | 8006 ft | 350 kts | 259° |
| 2026-05-05 07:41 | 22.17449 | 114.19086 | 7992 ft | 350 kts | 259° |
| 2026-05-05 07:41 | 22.17037 | 114.16527 | 7662 ft | 342 kts | 259° |
| 2026-05-05 07:41 | 22.16632 | 114.14017 | 6948 ft | 341 kts | 259° |
| 2026-05-05 07:41 | 22.16224 | 114.11493 | 6225 ft | 340 kts | 259° |
| 2026-05-05 07:42 | 22.15818 | 114.08976 | 5508 ft | 339 kts | 259° |
| 2026-05-05 07:42 | 22.15415 | 114.06485 | 4786 ft | 338 kts | 259° |
| 2026-05-05 07:42 | 22.15010 | 114.03985 | 4240 ft | 337 kts | 259° |
| 2026-05-05 07:42 | 22.14609 | 114.01502 | 4024 ft | 338 kts | 259° |
| 2026-05-05 07:43 | 22.14203 | 113.98996 | 3998 ft | 339 kts | 258° |
| 2026-05-05 07:43 | 22.13881 | 113.96494 | 3988 ft | 331 kts | 265° |
| 2026-05-05 07:43 | 22.14019 | 113.94105 | 3997 ft | 309 kts | 279° |
| 2026-05-05 07:43 | 22.14508 | 113.91922 | 3987 ft | 289 kts | 283° |
| 2026-05-05 07:44 | 22.15043 | 113.89897 | 3823 ft | 276 kts | 284° |
| 2026-05-05 07:44 | 22.15571 | 113.87967 | 3576 ft | 259 kts | 284° |
| 2026-05-05 07:44 | 22.16075 | 113.86162 | 3314 ft | 243 kts | 284° |
| 2026-05-05 07:44 | 22.16548 | 113.84479 | 3058 ft | 228 kts | 284° |
| 2026-05-05 07:45 | 22.16987 | 113.82923 | 2983 ft | 210 kts | 284° |
| 2026-05-05 07:45 | 22.17409 | 113.81424 | 2987 ft | 202 kts | 284° |
| 2026-05-05 07:45 | 22.17813 | 113.79995 | 2994 ft | 198 kts | 283° |
| 2026-05-05 07:45 | 22.18211 | 113.78582 | 2996 ft | 193 kts | 284° |
| 2026-05-05 07:46 | 22.18600 | 113.77207 | 2687 ft | 193 kts | 284° |
| 2026-05-05 07:46 | 22.18998 | 113.75786 | 2133 ft | 203 kts | 286° |
| 2026-05-05 07:46 | 22.19407 | 113.74333 | 1697 ft | 205 kts | 288° |
| 2026-05-05 07:46 | 22.19845 | 113.72924 | 1498 ft | 194 kts | 294° |
| 2026-05-05 07:47 | 22.20685 | 113.71816 | 1483 ft | 192 kts | 329° |
| 2026-05-05 07:47 | 22.21963 | 113.71512 | 1497 ft | 185 kts | 10° |
| 2026-05-05 07:47 | 22.23080 | 113.72112 | 1497 ft | 181 kts | 47° |
| 2026-05-05 07:47 | 22.23776 | 113.73198 | 1502 ft | 178 kts | 63° |
| 2026-05-05 07:48 | 22.24355 | 113.74386 | 1487 ft | 179 kts | 64° |
| 2026-05-05 07:48 | 22.24930 | 113.75584 | 1487 ft | 181 kts | 64° |
| 2026-05-05 07:48 | 22.25420 | 113.76838 | 1495 ft | 181 kts | 71° |
| 2026-05-05 07:48 | 22.25840 | 113.78121 | 1492 ft | 182 kts | 71° |
| 2026-05-05 07:49 | 22.26247 | 113.79390 | 1484 ft | 171 kts | 72° |
| 2026-05-05 07:49 | 22.26612 | 113.80522 | 1452 ft | 149 kts | 72° |
| 2026-05-05 07:49 | 22.26932 | 113.81510 | 1474 ft | 134 kts | 71° |
| 2026-05-05 07:49 | 22.27238 | 113.82465 | 1490 ft | 135 kts | 72° |
| 2026-05-05 07:50 | 22.27546 | 113.83418 | 1491 ft | 136 kts | 72° |
| 2026-05-05 07:50 | 22.27861 | 113.84399 | 1428 ft | 144 kts | 73° |
| 2026-05-05 07:50 | 22.28185 | 113.85470 | 1070 ft | 153 kts | 73° |
| 2026-05-05 07:50 | 22.28531 | 113.86547 | 765 ft | 152 kts | 71° |
| 2026-05-05 07:51 | 22.28891 | 113.87604 | 516 ft | 145 kts | 69° |
| 2026-05-05 07:51 | 22.29213 | 113.88529 | 396 ft | 137 kts | 70° |
| 2026-05-05 07:51 | 22.29331 | 113.88875 | 371 ft | 131 kts | 68° |
| 2026-05-05 07:51 | 22.29396 | 113.89057 | 309 ft | 133 kts | 68° |
| 2026-05-05 07:52 | 22.29497 | 113.89341 | 284 ft | 127 kts | 61° |
| 2026-05-05 07:52 | 22.29521 | 113.89407 | 286 ft | 127 kts | 60° |